Byers, Kansas
Current Conditions -  °F | °C
As of 10:55 PM on Thursday 25 Dec 2014 (Local Time) from KPTT Reporting Station
Clear Clear  
Wind Chill: 36°   Ceiling: Unl
Heat Index: 45°   Visibility: 10mi
Dew Point: 28°   Wind: 21mph
Humidity: 53%   Direction: 200°SSW
Pressure: 29.69"   Gusts: 26mph
Location:  37.79°N, 98.87°W
Report Text: KPTT 260455Z AUTO 20018G23KT 10SM CLR 07/M02 A2969 RMK AO2
Loading
Personal Weather Stations






























Interactive Weather Map New forecast layout! Learn more

10-Day Weather Forecast

Advertisements
Track Severe Weather on mobile